sensor_id;sensor_type;location;lat;lon;timestamp;pressure;altitude;pressure_sealevel;temperature;humidity
51227;BME280;42714;48.260;10.980;2023-05-25T00:04:55;973.0;;;11.9;100.0
51227;BME280;42714;48.260;10.980;2023-05-25T00:09:56;972.9;;;11.9;100.0
51227;BME280;42714;48.260;10.980;2023-05-25T00:14:57;973.0;;;11.9;100.0
51227;BME280;42714;48.260;10.980;2023-05-25T00:19:58;973.0;;;11.9;100.0
51227;BME280;42714;48.260;10.980;2023-05-25T00:24:59;973.0;;;12.0;100.0
51227;BME280;42714;48.260;10.980;2023-05-25T00:30:00;973.2;;;11.9;100.0
51227;BME280;42714;48.260;10.980;2023-05-25T00:35:01;973.2;;;11.9;100.0
51227;BME280;42714;48.260;10.980;2023-05-25T00:40:02;973.2;;;12.0;100.0
51227;BME280;42714;48.260;10.980;2023-05-25T00:55:06;973.1;;;12.0;100.0
51227;BME280;42714;48.260;10.980;2023-05-25T01:05:07;973.1;;;11.9;100.0
51227;BME280;42714;48.260;10.980;2023-05-25T01:10:08;973.0;;;11.9;100.0
51227;BME280;42714;48.260;10.980;2023-05-25T01:15:09;972.9;;;11.9;100.0
51227;BME280;42714;48.260;10.980;2023-05-25T01:20:10;972.9;;;11.8;100.0
51227;BME280;42714;48.260;10.980;2023-05-25T01:25:12;973.0;;;11.9;100.0
51227;BME280;42714;48.260;10.980;2023-05-25T01:30:12;973.0;;;11.9;100.0
51227;BME280;42714;48.260;10.980;2023-05-25T01:35:12;973.0;;;11.9;100.0
51227;BME280;42714;48.260;10.980;2023-05-25T01:40:14;973.0;;;11.8;100.0
51227;BME280;42714;48.260;10.980;2023-05-25T01:45:14;973.1;;;11.6;100.0
51227;BME280;42714;48.260;10.980;2023-05-25T01:50:21;973.0;;;11.4;100.0
51227;BME280;42714;48.260;10.980;2023-05-25T01:55:17;973.1;;;11.1;100.0
51227;BME280;42714;48.260;10.980;2023-05-25T02:00:17;973.1;;;10.9;100.0
51227;BME280;42714;48.260;10.980;2023-05-25T02:05:19;973.1;;;10.7;100.0
51227;BME280;42714;48.260;10.980;2023-05-25T02:10:19;973.1;;;10.6;100.0
51227;BME280;42714;48.260;10.980;2023-05-25T02:15:21;973.1;;;10.4;100.0
51227;BME280;42714;48.260;10.980;2023-05-25T02:20:22;973.1;;;10.3;100.0
51227;BME280;42714;48.260;10.980;2023-05-25T02:25:22;973.1;;;10.2;100.0
51227;BME280;42714;48.260;10.980;2023-05-25T02:30:23;973.0;;;10.2;100.0
51227;BME280;42714;48.260;10.980;2023-05-25T02:35:24;973.0;;;10.3;100.0
51227;BME280;42714;48.260;10.980;2023-05-25T02:40:25;972.9;;;10.2;100.0
51227;BME280;42714;48.260;10.980;2023-05-25T02:45:27;973.0;;;10.1;100.0
51227;BME280;42714;48.260;10.980;2023-05-25T02:50:28;973.1;;;10.0;100.0
51227;BME280;42714;48.260;10.980;2023-05-25T02:55:28;973.1;;;9.9;100.0
51227;BME280;42714;48.260;10.980;2023-05-25T03:00:30;973.1;;;9.9;100.0
51227;BME280;42714;48.260;10.980;2023-05-25T03:05:31;973.2;;;9.9;100.0
51227;BME280;42714;48.260;10.980;2023-05-25T03:10:32;973.3;;;9.9;100.0
51227;BME280;42714;48.260;10.980;2023-05-25T03:15:33;973.3;;;9.9;100.0
51227;BME280;42714;48.260;10.980;2023-05-25T03:20:34;973.2;;;9.9;100.0
51227;BME280;42714;48.260;10.980;2023-05-25T03:25:35;973.3;;;10.0;100.0
51227;BME280;42714;48.260;10.980;2023-05-25T03:30:36;973.2;;;10.2;100.0
51227;BME280;42714;48.260;10.980;2023-05-25T03:35:37;973.2;;;10.4;100.0
51227;BME280;42714;48.260;10.980;2023-05-25T03:40:38;973.2;;;10.8;100.0
51227;BME280;42714;48.260;10.980;2023-05-25T03:45:39;973.3;;;11.0;100.0
51227;BME280;42714;48.260;10.980;2023-05-25T03:50:40;973.3;;;11.1;100.0
51227;BME280;42714;48.260;10.980;2023-05-25T03:55:41;973.3;;;11.3;100.0
51227;BME280;42714;48.260;10.980;2023-05-25T04:00:42;973.2;;;11.4;100.0
51227;BME280;42714;48.260;10.980;2023-05-25T04:05:43;973.2;;;11.5;100.0
51227;BME280;42714;48.260;10.980;2023-05-25T04:10:44;973.2;;;11.6;100.0
51227;BME280;42714;48.260;10.980;2023-05-25T04:15:45;973.2;;;11.8;100.0
51227;BME280;42714;48.260;10.980;2023-05-25T04:20:46;973.3;;;11.8;100.0
51227;BME280;42714;48.260;10.980;2023-05-25T04:25:47;973.3;;;11.9;100.0
51227;BME280;42714;48.260;10.980;2023-05-25T04:30:48;973.4;;;11.9;100.0
51227;BME280;42714;48.260;10.980;2023-05-25T04:35:49;973.4;;;12.0;100.0
51227;BME280;42714;48.260;10.980;2023-05-25T04:40:50;973.4;;;12.1;100.0
51227;BME280;42714;48.260;10.980;2023-05-25T04:45:51;973.4;;;12.1;100.0
51227;BME280;42714;48.260;10.980;2023-05-25T04:50:52;973.4;;;12.2;100.0
51227;BME280;42714;48.260;10.980;2023-05-25T04:55:53;973.4;;;12.3;100.0
51227;BME280;42714;48.260;10.980;2023-05-25T05:00:54;973.4;;;12.5;100.0
51227;BME280;42714;48.260;10.980;2023-05-25T05:05:55;973.4;;;12.6;100.0
51227;BME280;42714;48.260;10.980;2023-05-25T05:10:56;973.5;;;12.7;100.0
51227;BME280;42714;48.260;10.980;2023-05-25T05:15:57;973.4;;;12.9;100.0
51227;BME280;42714;48.260;10.980;2023-05-25T05:20:58;973.5;;;12.9;100.0
51227;BME280;42714;48.260;10.980;2023-05-25T05:25:59;973.5;;;13.0;100.0
51227;BME280;42714;48.260;10.980;2023-05-25T05:31:00;973.6;;;13.1;100.0
51227;BME280;42714;48.260;10.980;2023-05-25T05:36:01;973.6;;;13.3;100.0
51227;BME280;42714;48.260;10.980;2023-05-25T05:41:02;973.6;;;13.4;100.0
51227;BME280;42714;48.260;10.980;2023-05-25T05:46:03;973.6;;;13.7;100.0
51227;BME280;42714;48.260;10.980;2023-05-25T05:51:04;973.7;;;13.8;100.0
51227;BME280;42714;48.260;10.980;2023-05-25T05:56:05;973.7;;;14.0;100.0
51227;BME280;42714;48.260;10.980;2023-05-25T06:01:06;973.7;;;13.9;100.0
51227;BME280;42714;48.260;10.980;2023-05-25T06:06:07;973.7;;;14.0;100.0
51227;BME280;42714;48.260;10.980;2023-05-25T06:11:08;973.7;;;14.1;100.0
51227;BME280;42714;48.260;10.980;2023-05-25T06:16:09;973.7;;;14.2;100.0
51227;BME280;42714;48.260;10.980;2023-05-25T06:21:10;973.8;;;14.4;100.0
51227;BME280;42714;48.260;10.980;2023-05-25T06:26:11;973.7;;;14.3;100.0
51227;BME280;42714;48.260;10.980;2023-05-25T06:31:12;973.7;;;14.5;100.0
51227;BME280;42714;48.260;10.980;2023-05-25T06:36:13;973.8;;;14.7;100.0
51227;BME280;42714;48.260;10.980;2023-05-25T06:41:14;973.8;;;14.9;100.0
51227;BME280;42714;48.260;10.980;2023-05-25T06:46:15;973.8;;;15.0;100.0
51227;BME280;42714;48.260;10.980;2023-05-25T06:51:16;973.9;;;15.2;100.0
51227;BME280;42714;48.260;10.980;2023-05-25T06:56:17;974.0;;;15.6;100.0
51227;BME280;42714;48.260;10.980;2023-05-25T07:01:18;973.9;;;15.3;100.0
51227;BME280;42714;48.260;10.980;2023-05-25T07:06:19;973.9;;;15.2;100.0
51227;BME280;42714;48.260;10.980;2023-05-25T07:11:20;973.9;;;15.3;100.0
51227;BME280;42714;48.260;10.980;2023-05-25T07:16:21;973.9;;;15.5;100.0
51227;BME280;42714;48.260;10.980;2023-05-25T07:21:22;973.9;;;15.8;100.0
51227;BME280;42714;48.260;10.980;2023-05-25T07:26:23;973.9;;;16.1;100.0
51227;BME280;42714;48.260;10.980;2023-05-25T07:31:24;973.9;;;16.3;100.0
51227;BME280;42714;48.260;10.980;2023-05-25T07:36:25;974.0;;;16.4;100.0
51227;BME280;42714;48.260;10.980;2023-05-25T07:41:26;974.1;;;16.5;100.0
51227;BME280;42714;48.260;10.980;2023-05-25T07:46:27;974.1;;;16.6;100.0
51227;BME280;42714;48.260;10.980;2023-05-25T07:51:28;974.1;;;16.7;100.0
51227;BME280;42714;48.260;10.980;2023-05-25T07:56:29;974.2;;;17.1;100.0
51227;BME280;42714;48.260;10.980;2023-05-25T08:01:30;974.2;;;17.4;100.0
51227;BME280;42714;48.260;10.980;2023-05-25T08:06:31;974.2;;;17.5;100.0
51227;BME280;42714;48.260;10.980;2023-05-25T08:11:32;974.2;;;17.5;100.0
51227;BME280;42714;48.260;10.980;2023-05-25T08:16:33;974.2;;;18.0;100.0
51227;BME280;42714;48.260;10.980;2023-05-25T08:21:34;974.3;;;18.2;100.0
51227;BME280;42714;48.260;10.980;2023-05-25T08:26:35;974.4;;;18.0;100.0
51227;BME280;42714;48.260;10.980;2023-05-25T08:31:36;974.3;;;18.0;100.0
51227;BME280;42714;48.260;10.980;2023-05-25T08:36:37;974.4;;;18.4;100.0
51227;BME280;42714;48.260;10.980;2023-05-25T08:41:40;974.3;;;18.6;100.0
51227;BME280;42714;48.260;10.980;2023-05-25T08:46:39;974.5;;;18.8;96.4
51227;BME280;42714;48.260;10.980;2023-05-25T08:51:41;974.5;;;18.5;100.0
51227;BME280;42714;48.260;10.980;2023-05-25T08:56:45;974.6;;;18.1;100.0
51227;BME280;42714;48.260;10.980;2023-05-25T09:01:43;974.6;;;18.4;100.0
51227;BME280;42714;48.260;10.980;2023-05-25T09:06:43;974.6;;;18.2;100.0
51227;BME280;42714;48.260;10.980;2023-05-25T09:11:44;974.7;;;18.0;100.0
51227;BME280;42714;48.260;10.980;2023-05-25T09:16:45;974.8;;;18.0;100.0
51227;BME280;42714;48.260;10.980;2023-05-25T09:21:46;974.7;;;18.3;100.0
51227;BME280;42714;48.260;10.980;2023-05-25T09:26:47;974.7;;;18.9;100.0
51227;BME280;42714;48.260;10.980;2023-05-25T09:31:48;974.8;;;18.5;100.0
51227;BME280;42714;48.260;10.980;2023-05-25T09:36:49;974.8;;;18.6;100.0
51227;BME280;42714;48.260;10.980;2023-05-25T09:41:50;974.9;;;18.9;100.0
51227;BME280;42714;48.260;10.980;2023-05-25T09:46:51;975.0;;;18.9;100.0
51227;BME280;42714;48.260;10.980;2023-05-25T09:51:52;975.0;;;19.2;100.0
51227;BME280;42714;48.260;10.980;2023-05-25T09:56:53;975.0;;;19.3;98.2
51227;BME280;42714;48.260;10.980;2023-05-25T10:01:54;974.9;;;19.3;100.0
51227;BME280;42714;48.260;10.980;2023-05-25T10:06:55;975.0;;;19.1;100.0
51227;BME280;42714;48.260;10.980;2023-05-25T10:11:56;975.0;;;19.2;100.0
51227;BME280;42714;48.260;10.980;2023-05-25T10:16:58;975.0;;;19.1;100.0
51227;BME280;42714;48.260;10.980;2023-05-25T10:22:00;975.0;;;19.2;100.0
51227;BME280;42714;48.260;10.980;2023-05-25T10:26:59;975.0;;;19.8;99.0
51227;BME280;42714;48.260;10.980;2023-05-25T10:32:00;975.0;;;19.7;97.1
51227;BME280;42714;48.260;10.980;2023-05-25T10:37:01;975.0;;;19.8;98.2
51227;BME280;42714;48.260;10.980;2023-05-25T10:42:02;975.0;;;20.1;93.5
51227;BME280;42714;48.260;10.980;2023-05-25T10:47:03;975.0;;;20.1;94.1
51227;BME280;42714;48.260;10.980;2023-05-25T10:52:04;975.0;;;20.8;88.4
51227;BME280;42714;48.260;10.980;2023-05-25T10:57:06;975.0;;;20.8;86.0
51227;BME280;42714;48.260;10.980;2023-05-25T11:02:06;975.0;;;20.4;91.8
51227;BME280;42714;48.260;10.980;2023-05-25T11:07:07;975.1;;;20.6;90.8
51227;BME280;42714;48.260;10.980;2023-05-25T11:17:10;975.0;;;21.4;83.2
51227;BME280;42714;48.260;10.980;2023-05-25T11:22:14;974.9;;;22.5;72.5
51227;BME280;42714;48.260;10.980;2023-05-25T11:27:11;974.7;;;23.9;61.7
51227;BME280;42714;48.260;10.980;2023-05-25T11:32:13;974.8;;;24.7;54.1
51227;BME280;42714;48.260;10.980;2023-05-25T11:37:14;974.8;;;24.3;56.9
51227;BME280;42714;48.260;10.980;2023-05-25T11:42:14;974.6;;;24.7;53.4
51227;BME280;42714;48.260;10.980;2023-05-25T11:47:15;974.6;;;23.9;59.1
51227;BME280;42714;48.260;10.980;2023-05-25T11:52:16;974.6;;;25.3;52.6
51227;BME280;42714;48.260;10.980;2023-05-25T11:57:18;974.5;;;27.3;44.0
51227;BME280;42714;48.260;10.980;2023-05-25T12:02:19;974.6;;;26.4;47.4
51227;BME280;42714;48.260;10.980;2023-05-25T12:07:19;974.5;;;27.6;42.2
51227;BME280;42714;48.260;10.980;2023-05-25T12:12:20;974.4;;;26.8;45.5
51227;BME280;42714;48.260;10.980;2023-05-25T12:17:21;974.4;;;26.8;47.1
51227;BME280;42714;48.260;10.980;2023-05-25T12:22:22;974.4;;;27.3;43.4
51227;BME280;42714;48.260;10.980;2023-05-25T12:27:23;974.5;;;26.6;45.8
51227;BME280;42714;48.260;10.980;2023-05-25T12:32:24;974.5;;;25.8;47.8
51227;BME280;42714;48.260;10.980;2023-05-25T12:37:25;974.5;;;25.1;50.6
51227;BME280;42714;48.260;10.980;2023-05-25T12:42:26;974.5;;;24.9;53.4
51227;BME280;42714;48.260;10.980;2023-05-25T12:47:27;974.5;;;25.2;54.5
51227;BME280;42714;48.260;10.980;2023-05-25T12:52:30;974.5;;;25.5;53.1
51227;BME280;42714;48.260;10.980;2023-05-25T13:02:30;974.4;;;24.8;55.6
51227;BME280;42714;48.260;10.980;2023-05-25T13:07:31;974.3;;;26.8;48.0
51227;BME280;42714;48.260;10.980;2023-05-25T13:12:33;974.2;;;27.0;44.9
51227;BME280;42714;48.260;10.980;2023-05-25T13:17:33;974.2;;;28.0;42.0
51227;BME280;42714;48.260;10.980;2023-05-25T13:22:34;974.1;;;29.8;38.8
51227;BME280;42714;48.260;10.980;2023-05-25T13:27:35;974.1;;;30.4;37.6
51227;BME280;42714;48.260;10.980;2023-05-25T13:32:37;974.1;;;31.7;34.0
51227;BME280;42714;48.260;10.980;2023-05-25T13:37:37;974.0;;;32.5;32.0
51227;BME280;42714;48.260;10.980;2023-05-25T13:42:38;974.1;;;31.0;34.5
51227;BME280;42714;48.260;10.980;2023-05-25T13:47:39;974.1;;;31.9;33.5
51227;BME280;42714;48.260;10.980;2023-05-25T13:52:40;973.9;;;32.5;32.2
51227;BME280;42714;48.260;10.980;2023-05-25T13:57:41;973.9;;;32.4;31.7
51227;BME280;42714;48.260;10.980;2023-05-25T14:02:42;974.0;;;30.9;35.2
51227;BME280;42714;48.260;10.980;2023-05-25T14:07:43;974.0;;;28.9;38.6
51227;BME280;42714;48.260;10.980;2023-05-25T14:12:44;974.0;;;27.1;42.3
51227;BME280;42714;48.260;10.980;2023-05-25T14:17:45;974.0;;;26.2;46.4
51227;BME280;42714;48.260;10.980;2023-05-25T14:22:46;974.0;;;25.4;49.6
51227;BME280;42714;48.260;10.980;2023-05-25T14:27:47;974.0;;;24.8;52.7
51227;BME280;42714;48.260;10.980;2023-05-25T14:32:48;974.0;;;24.6;57.1
51227;BME280;42714;48.260;10.980;2023-05-25T14:37:49;974.0;;;24.6;54.4
51227;BME280;42714;48.260;10.980;2023-05-25T14:42:50;974.0;;;24.3;56.3
51227;BME280;42714;48.260;10.980;2023-05-25T14:47:51;973.9;;;24.9;52.1
51227;BME280;42714;48.260;10.980;2023-05-25T14:52:52;974.0;;;25.3;52.2
51227;BME280;42714;48.260;10.980;2023-05-25T14:57:53;974.0;;;25.0;52.7
51227;BME280;42714;48.260;10.980;2023-05-25T15:02:54;974.0;;;25.4;50.8
51227;BME280;42714;48.260;10.980;2023-05-25T15:07:55;974.0;;;25.0;50.3
51227;BME280;42714;48.260;10.980;2023-05-25T15:12:56;974.0;;;24.1;53.8
51227;BME280;42714;48.260;10.980;2023-05-25T15:17:57;974.0;;;23.8;58.0
51227;BME280;42714;48.260;10.980;2023-05-25T15:22:58;973.9;;;24.1;55.7
51227;BME280;42714;48.260;10.980;2023-05-25T15:27:59;973.9;;;24.0;54.4
51227;BME280;42714;48.260;10.980;2023-05-25T15:33:00;974.0;;;23.5;58.1
51227;BME280;42714;48.260;10.980;2023-05-25T15:38:01;974.0;;;23.2;61.4
51227;BME280;42714;48.260;10.980;2023-05-25T15:43:02;974.0;;;23.7;60.7
51227;BME280;42714;48.260;10.980;2023-05-25T15:48:03;974.0;;;24.0;58.0
51227;BME280;42714;48.260;10.980;2023-05-25T15:53:04;973.9;;;23.6;56.4
51227;BME280;42714;48.260;10.980;2023-05-25T15:58:05;973.9;;;23.2;57.8
51227;BME280;42714;48.260;10.980;2023-05-25T16:03:06;973.9;;;22.8;63.1
51227;BME280;42714;48.260;10.980;2023-05-25T16:08:07;973.9;;;22.7;61.2
51227;BME280;42714;48.260;10.980;2023-05-25T16:13:08;973.9;;;22.8;63.0
51227;BME280;42714;48.260;10.980;2023-05-25T16:18:09;973.9;;;23.2;58.4
51227;BME280;42714;48.260;10.980;2023-05-25T16:23:10;974.0;;;23.0;60.7
51227;BME280;42714;48.260;10.980;2023-05-25T16:28:11;974.0;;;22.8;62.1
51227;BME280;42714;48.260;10.980;2023-05-25T16:33:12;974.0;;;22.6;65.6
51227;BME280;42714;48.260;10.980;2023-05-25T16:38:13;974.0;;;22.3;69.6
51227;BME280;42714;48.260;10.980;2023-05-25T16:43:14;974.0;;;22.5;63.7
51227;BME280;42714;48.260;10.980;2023-05-25T16:48:15;974.0;;;22.1;68.4
51227;BME280;42714;48.260;10.980;2023-05-25T16:53:16;974.1;;;22.2;68.5
51227;BME280;42714;48.260;10.980;2023-05-25T16:58:17;974.1;;;22.4;68.1
51227;BME280;42714;48.260;10.980;2023-05-25T17:03:18;974.1;;;22.4;69.3
51227;BME280;42714;48.260;10.980;2023-05-25T17:08:19;974.1;;;22.4;65.8
51227;BME280;42714;48.260;10.980;2023-05-25T17:13:20;974.1;;;22.3;65.6
51227;BME280;42714;48.260;10.980;2023-05-25T17:18:21;974.1;;;21.9;72.1
51227;BME280;42714;48.260;10.980;2023-05-25T17:23:22;974.1;;;21.7;73.7
51227;BME280;42714;48.260;10.980;2023-05-25T17:28:23;974.1;;;21.5;76.1
51227;BME280;42714;48.260;10.980;2023-05-25T17:33:24;974.2;;;21.3;79.7
51227;BME280;42714;48.260;10.980;2023-05-25T17:38:25;974.2;;;21.2;81.7
51227;BME280;42714;48.260;10.980;2023-05-25T17:43:26;974.2;;;21.2;80.7
51227;BME280;42714;48.260;10.980;2023-05-25T17:48:27;974.2;;;21.2;82.6
51227;BME280;42714;48.260;10.980;2023-05-25T17:53:28;974.2;;;21.4;77.6
51227;BME280;42714;48.260;10.980;2023-05-25T17:58:29;974.2;;;21.4;71.2
51227;BME280;42714;48.260;10.980;2023-05-25T18:03:30;974.2;;;21.2;72.0
51227;BME280;42714;48.260;10.980;2023-05-25T18:08:31;974.2;;;21.0;74.3
51227;BME280;42714;48.260;10.980;2023-05-25T18:13:32;974.3;;;20.9;74.6
51227;BME280;42714;48.260;10.980;2023-05-25T18:18:33;974.4;;;20.7;77.7
51227;BME280;42714;48.260;10.980;2023-05-25T18:23:34;974.4;;;20.5;80.6
51227;BME280;42714;48.260;10.980;2023-05-25T18:28:35;974.5;;;20.3;82.9
51227;BME280;42714;48.260;10.980;2023-05-25T18:33:36;974.5;;;20.1;84.5
51227;BME280;42714;48.260;10.980;2023-05-25T18:38:37;974.5;;;20.0;87.0
51227;BME280;42714;48.260;10.980;2023-05-25T18:43:38;974.5;;;19.8;87.1
51227;BME280;42714;48.260;10.980;2023-05-25T18:48:39;974.6;;;19.6;90.2
51227;BME280;42714;48.260;10.980;2023-05-25T18:53:40;974.6;;;19.4;91.4
51227;BME280;42714;48.260;10.980;2023-05-25T18:58:41;974.6;;;19.2;94.0
51227;BME280;42714;48.260;10.980;2023-05-25T19:03:42;974.6;;;19.0;95.9
51227;BME280;42714;48.260;10.980;2023-05-25T19:08:43;974.6;;;18.8;97.8
51227;BME280;42714;48.260;10.980;2023-05-25T19:13:45;974.7;;;18.6;100.0
51227;BME280;42714;48.260;10.980;2023-05-25T19:18:46;974.7;;;18.4;100.0
51227;BME280;42714;48.260;10.980;2023-05-25T19:23:47;974.8;;;18.1;100.0
51227;BME280;42714;48.260;10.980;2023-05-25T19:28:48;974.8;;;17.9;100.0
51227;BME280;42714;48.260;10.980;2023-05-25T19:33:49;974.9;;;17.7;100.0
51227;BME280;42714;48.260;10.980;2023-05-25T19:38:50;975.0;;;17.5;100.0
51227;BME280;42714;48.260;10.980;2023-05-25T19:43:51;975.0;;;17.4;100.0
51227;BME280;42714;48.260;10.980;2023-05-25T19:48:52;975.1;;;17.1;100.0
51227;BME280;42714;48.260;10.980;2023-05-25T19:53:53;975.2;;;17.0;100.0
51227;BME280;42714;48.260;10.980;2023-05-25T19:58:54;975.2;;;16.9;100.0
51227;BME280;42714;48.260;10.980;2023-05-25T20:03:55;975.2;;;16.8;100.0
51227;BME280;42714;48.260;10.980;2023-05-25T20:08:56;975.2;;;16.6;100.0
51227;BME280;42714;48.260;10.980;2023-05-25T20:13:57;975.3;;;16.5;100.0
51227;BME280;42714;48.260;10.980;2023-05-25T20:18:58;975.3;;;16.4;100.0
51227;BME280;42714;48.260;10.980;2023-05-25T20:23:59;975.3;;;16.4;100.0
51227;BME280;42714;48.260;10.980;2023-05-25T20:29:00;975.4;;;16.4;100.0
51227;BME280;42714;48.260;10.980;2023-05-25T20:34:01;975.4;;;16.5;100.0
51227;BME280;42714;48.260;10.980;2023-05-25T20:39:02;975.4;;;16.7;100.0
51227;BME280;42714;48.260;10.980;2023-05-25T20:44:03;975.4;;;16.7;100.0
51227;BME280;42714;48.260;10.980;2023-05-25T20:49:04;975.4;;;16.8;100.0
51227;BME280;42714;48.260;10.980;2023-05-25T20:54:05;975.4;;;16.9;100.0
51227;BME280;42714;48.260;10.980;2023-05-25T20:59:06;975.5;;;16.7;100.0
51227;BME280;42714;48.260;10.980;2023-05-25T21:04:07;975.5;;;16.2;100.0
51227;BME280;42714;48.260;10.980;2023-05-25T21:09:08;975.5;;;16.1;100.0
51227;BME280;42714;48.260;10.980;2023-05-25T21:14:09;975.6;;;16.2;100.0
51227;BME280;42714;48.260;10.980;2023-05-25T21:19:10;975.6;;;16.3;100.0
51227;BME280;42714;48.260;10.980;2023-05-25T21:24:11;975.5;;;16.4;100.0
51227;BME280;42714;48.260;10.980;2023-05-25T21:29:12;975.5;;;16.5;100.0
51227;BME280;42714;48.260;10.980;2023-05-25T21:34:13;975.5;;;16.5;100.0
51227;BME280;42714;48.260;10.980;2023-05-25T21:39:14;975.5;;;16.4;100.0
51227;BME280;42714;48.260;10.980;2023-05-25T21:44:15;975.5;;;16.2;100.0
51227;BME280;42714;48.260;10.980;2023-05-25T21:49:16;975.5;;;16.0;100.0
51227;BME280;42714;48.260;10.980;2023-05-25T21:54:17;975.5;;;15.8;100.0
51227;BME280;42714;48.260;10.980;2023-05-25T21:59:18;975.5;;;15.6;100.0
51227;BME280;42714;48.260;10.980;2023-05-25T22:04:19;975.5;;;15.5;100.0
51227;BME280;42714;48.260;10.980;2023-05-25T22:09:20;975.5;;;15.3;100.0
51227;BME280;42714;48.260;10.980;2023-05-25T22:14:21;975.5;;;15.1;100.0
51227;BME280;42714;48.260;10.980;2023-05-25T22:19:22;975.5;;;15.0;100.0
51227;BME280;42714;48.260;10.980;2023-05-25T22:24:23;975.6;;;14.8;100.0
51227;BME280;42714;48.260;10.980;2023-05-25T22:29:24;975.5;;;14.7;100.0
51227;BME280;42714;48.260;10.980;2023-05-25T22:34:25;975.5;;;14.6;100.0
51227;BME280;42714;48.260;10.980;2023-05-25T22:39:26;975.5;;;14.4;100.0
51227;BME280;42714;48.260;10.980;2023-05-25T22:44:27;975.5;;;14.4;100.0
51227;BME280;42714;48.260;10.980;2023-05-25T22:49:28;975.5;;;14.3;100.0
51227;BME280;42714;48.260;10.980;2023-05-25T22:54:29;975.5;;;14.3;100.0
51227;BME280;42714;48.260;10.980;2023-05-25T22:59:30;975.5;;;14.1;100.0
51227;BME280;42714;48.260;10.980;2023-05-25T23:04:32;975.5;;;14.0;100.0
51227;BME280;42714;48.260;10.980;2023-05-25T23:09:32;975.5;;;13.9;100.0
51227;BME280;42714;48.260;10.980;2023-05-25T23:14:33;975.5;;;13.8;100.0
51227;BME280;42714;48.260;10.980;2023-05-25T23:19:34;975.6;;;13.7;100.0
51227;BME280;42714;48.260;10.980;2023-05-25T23:24:35;975.5;;;13.6;100.0
51227;BME280;42714;48.260;10.980;2023-05-25T23:29:36;975.5;;;13.4;100.0
51227;BME280;42714;48.260;10.980;2023-05-25T23:34:37;975.5;;;13.2;100.0
51227;BME280;42714;48.260;10.980;2023-05-25T23:39:38;975.6;;;13.1;100.0
51227;BME280;42714;48.260;10.980;2023-05-25T23:44:39;975.6;;;13.0;100.0
51227;BME280;42714;48.260;10.980;2023-05-25T23:49:40;975.7;;;13.0;100.0
51227;BME280;42714;48.260;10.980;2023-05-25T23:54:41;975.7;;;12.9;100.0
51227;BME280;42714;48.260;10.980;2023-05-25T23:59:42;975.7;;;13.0;100.0
